createdAt,value
2022-11-04T00:02:33.441Z,8.20
2022-11-04T00:07:54.353Z,8.10
2022-11-04T00:12:56.677Z,8.10
2022-11-04T00:17:58.963Z,8.00
2022-11-04T00:23:19.710Z,8.00
2022-11-04T00:28:40.459Z,8.00
2022-11-04T00:33:42.773Z,7.90
2022-11-04T00:38:45.275Z,7.90
2022-11-04T00:43:47.571Z,7.90
2022-11-04T00:48:50.267Z,7.90
2022-11-04T00:53:52.821Z,7.90
2022-11-04T00:58:55.169Z,7.80
2022-11-04T01:03:57.565Z,7.80
2022-11-04T01:09:02.685Z,7.90
2022-11-04T01:14:05.709Z,8.10
2022-11-04T01:19:08.230Z,7.90
2022-11-04T01:24:10.674Z,7.90
2022-11-04T01:29:13.085Z,7.90
2022-11-04T01:34:15.526Z,7.80
2022-11-04T01:39:17.981Z,7.80
2022-11-04T01:44:42.267Z,7.90
2022-11-04T01:49:48.871Z,7.80
2022-11-04T01:54:55.568Z,7.80
2022-11-04T02:00:02.036Z,7.70
2022-11-04T02:05:14.015Z,7.70
2022-11-04T02:10:17.268Z,7.70
2022-11-04T02:15:23.862Z,7.60
2022-11-04T02:20:37.185Z,7.60
2022-11-04T02:26:14.062Z,7.50
2022-11-04T02:31:19.262Z,7.40
2022-11-04T02:36:43.558Z,7.30
2022-11-04T02:41:58.522Z,7.10
2022-11-04T02:47:05.080Z,7.00
2022-11-04T02:52:11.935Z,6.90
2022-11-04T02:57:19.571Z,6.80
2022-11-04T03:02:48.977Z,6.70
2022-11-04T03:07:54.238Z,6.60
2022-11-04T03:13:13.880Z,6.70
2022-11-04T03:18:37.136Z,6.70
2022-11-04T03:23:40.315Z,6.70
2022-11-04T03:29:06.181Z,6.80
2022-11-04T03:34:11.214Z,6.90
2022-11-04T03:39:13.610Z,6.90
2022-11-04T03:44:16.034Z,6.90
2022-11-04T03:49:19.605Z,6.90
2022-11-04T03:54:22.010Z,6.80
2022-11-04T03:59:45.032Z,6.70
2022-11-04T04:05:08.568Z,6.60
2022-11-04T04:10:36.365Z,6.50
2022-11-04T04:16:07.960Z,6.40
2022-11-04T04:21:17.200Z,6.40
2022-11-04T04:26:40.550Z,6.40
2022-11-04T04:31:57.777Z,6.40
2022-11-04T04:37:10.398Z,6.30
2022-11-04T04:42:31.164Z,6.20
2022-11-04T04:47:53.885Z,6.00
2022-11-04T04:52:58.104Z,6.00
2022-11-04T04:58:00.410Z,5.90
2022-11-04T05:03:02.790Z,5.90
2022-11-04T05:08:09.232Z,6.00
2022-11-04T05:13:30.071Z,6.00
2022-11-04T05:18:32.726Z,6.10
2022-11-04T05:23:35.786Z,6.10
2022-11-04T05:28:38.832Z,6.10
2022-11-04T05:33:41.339Z,6.20
2022-11-04T05:38:43.812Z,6.10
2022-11-04T05:43:46.104Z,6.20
2022-11-04T05:48:48.486Z,6.20
2022-11-04T05:53:51.801Z,6.20
2022-11-04T05:58:54.290Z,6.30
2022-11-04T06:03:58.008Z,6.40
2022-11-04T06:09:00.566Z,6.30
2022-11-04T06:14:02.955Z,6.30
2022-11-04T06:19:08.677Z,6.40
2022-11-04T06:24:13.204Z,6.50
2022-11-04T06:29:15.492Z,6.60
2022-11-04T06:34:17.787Z,6.70
2022-11-04T06:39:20.299Z,6.80
2022-11-04T06:44:22.735Z,7.00
2022-11-04T06:49:25.106Z,7.20
2022-11-04T06:54:27.399Z,7.20
2022-11-04T06:59:29.761Z,7.40
2022-11-04T07:04:32.084Z,7.50
2022-11-04T07:09:35.409Z,7.70
2022-11-04T07:14:37.734Z,7.90
2022-11-04T07:19:40.070Z,7.90
2022-11-04T07:24:43.591Z,7.90
2022-11-04T07:29:46.274Z,8.00
2022-11-04T07:34:48.666Z,8.20
2022-11-04T07:39:50.958Z,8.40
2022-11-04T07:44:53.362Z,8.60
2022-11-04T07:49:58.294Z,8.70
2022-11-04T07:55:01.080Z,9.00
2022-11-04T08:00:09.062Z,9.30
2022-11-04T08:05:14.956Z,9.70
2022-11-04T08:10:20.137Z,10.10
2022-11-04T08:15:22.569Z,10.20
2022-11-04T08:20:25.064Z,10.40
2022-11-04T08:25:27.438Z,10.50
2022-11-04T08:30:29.801Z,10.70
2022-11-04T08:35:40.623Z,10.80
2022-11-04T08:40:44.353Z,11.10
2022-11-04T08:45:46.897Z,11.20
2022-11-04T08:50:51.425Z,11.30
2022-11-04T08:55:54.225Z,11.60
2022-11-04T09:00:56.705Z,11.70
2022-11-04T09:05:59.043Z,11.70
2022-11-04T09:11:01.555Z,11.60
2022-11-04T09:16:04.660Z,11.80
2022-11-04T09:21:08.537Z,11.90
2022-11-04T09:26:14.196Z,11.90
2022-11-04T09:31:19.062Z,11.90
2022-11-04T09:36:21.785Z,11.90
2022-11-04T09:41:32.924Z,11.80
2022-11-04T09:46:36.609Z,11.80
2022-11-04T09:51:54.332Z,11.90
2022-11-04T09:57:01.492Z,11.80
2022-11-04T10:02:22.568Z,11.70
2022-11-04T10:07:45.950Z,11.90
2022-11-04T10:12:51.298Z,12.20
2022-11-04T10:18:15.273Z,12.30
2022-11-04T10:23:33.882Z,12.40
2022-11-04T10:28:42.499Z,12.40
2022-11-04T10:33:56.379Z,12.40
2022-11-04T10:39:02.058Z,12.30
2022-11-04T10:44:26.200Z,12.40
2022-11-04T10:49:36.478Z,12.20
2022-11-04T10:54:45.216Z,12.20
2022-11-04T11:00:05.508Z,12.10
2022-11-04T11:05:20.084Z,12.30
2022-11-04T11:10:29.763Z,12.20
2022-11-04T11:15:38.010Z,12.10
2022-11-04T11:20:41.211Z,12.30
2022-11-04T11:25:50.927Z,12.80
2022-11-04T11:30:58.709Z,12.60
2022-11-04T11:36:12.082Z,12.60
2022-11-04T11:41:26.184Z,12.90
2022-11-04T11:46:32.612Z,13.00
2022-11-04T11:51:37.778Z,12.90
2022-11-04T11:57:12.089Z,12.80
2022-11-04T12:02:25.625Z,12.90
2022-11-04T12:13:24.828Z,12.80
2022-11-04T12:19:04.717Z,12.80
2022-11-04T12:24:16.184Z,12.90
2022-11-04T12:29:47.595Z,12.80
2022-11-04T12:35:15.118Z,12.70
2022-11-04T12:40:36.262Z,12.60
2022-11-04T12:45:38.763Z,12.60
2022-11-04T12:51:01.521Z,12.60
2022-11-04T12:56:09.360Z,12.70
2022-11-04T13:01:18.014Z,12.70
2022-11-04T13:06:42.329Z,12.90
2022-11-04T13:12:05.247Z,12.70
2022-11-04T13:17:12.631Z,12.80
2022-11-04T13:22:25.851Z,12.60
2022-11-04T13:27:35.715Z,12.40
2022-11-04T13:32:48.614Z,12.10
2022-11-04T13:38:16.014Z,12.10
2022-11-04T13:43:39.512Z,12.20
2022-11-04T13:48:54.254Z,12.20
2022-11-04T13:53:58.104Z,12.10
2022-11-04T13:59:23.820Z,12.00
2022-11-04T14:04:30.160Z,12.00
2022-11-04T14:09:51.655Z,12.00
2022-11-04T14:15:08.075Z,12.00
2022-11-04T14:20:23.774Z,11.90
2022-11-04T14:25:36.833Z,11.80
2022-11-04T14:30:50.091Z,11.80
2022-11-04T14:35:54.761Z,11.70
2022-11-04T14:41:30.644Z,11.70
2022-11-04T14:46:40.742Z,11.60
2022-11-04T14:51:43.623Z,11.60
2022-11-04T14:56:47.058Z,11.50
2022-11-04T15:01:52.353Z,11.30
2022-11-04T15:06:56.366Z,11.20
2022-11-04T15:12:32.193Z,11.10
2022-11-04T15:17:34.932Z,11.20
2022-11-04T15:22:43.508Z,11.00
2022-11-04T15:27:46.060Z,11.10
2022-11-04T15:33:02.306Z,10.90
2022-11-04T15:38:10.854Z,10.90
2022-11-04T15:43:16.164Z,10.80
2022-11-04T15:48:34.932Z,10.80
2022-11-04T15:53:51.654Z,10.90
2022-11-04T15:58:56.032Z,10.70
2022-11-04T16:04:01.171Z,10.60
2022-11-04T16:09:27.290Z,10.70
2022-11-04T16:14:30.412Z,10.70
2022-11-04T16:19:32.857Z,10.70
2022-11-04T16:24:38.278Z,10.60
2022-11-04T16:29:43.848Z,10.60
2022-11-04T16:34:51.373Z,10.60
2022-11-04T16:39:53.858Z,10.60
2022-11-04T16:45:01.806Z,10.40
2022-11-04T16:50:16.469Z,10.60
2022-11-04T16:55:19.308Z,10.50
2022-11-04T17:00:24.538Z,10.50
2022-11-04T17:05:27.110Z,10.50
2022-11-04T17:10:29.727Z,10.50
2022-11-04T17:15:32.280Z,10.60
2022-11-04T17:20:34.730Z,10.40
2022-11-04T17:25:37.264Z,10.40
2022-11-04T17:30:40.788Z,10.30
2022-11-04T17:35:45.805Z,10.30
2022-11-04T17:41:06.869Z,10.30
2022-11-04T17:46:32.466Z,10.30
2022-11-04T17:51:35.865Z,10.10
2022-11-04T17:56:38.817Z,10.10
2022-11-04T18:01:43.413Z,10.00
2022-11-04T18:06:46.571Z,10.10
2022-11-04T18:12:07.421Z,10.00
2022-11-04T18:17:10.171Z,10.20
2022-11-04T18:22:12.586Z,10.00
2022-11-04T18:27:16.374Z,10.00
2022-11-04T18:32:18.785Z,10.00
2022-11-04T18:37:21.180Z,9.90
2022-11-04T18:42:23.603Z,9.90
2022-11-04T18:47:26.881Z,9.90
2022-11-04T18:52:29.427Z,9.90
2022-11-04T18:57:31.779Z,9.90
2022-11-04T19:02:34.295Z,9.80
2022-11-04T19:07:36.865Z,9.80
2022-11-04T19:12:58.202Z,9.80
2022-11-04T19:18:00.555Z,9.80
2022-11-04T19:23:03.397Z,9.80
2022-11-04T19:28:32.704Z,9.70
2022-11-04T19:33:29.509Z,9.70
2022-11-04T19:38:32.181Z,9.70
2022-11-04T19:43:35.399Z,9.50
2022-11-04T19:48:37.725Z,9.50
2022-11-04T19:53:40.151Z,9.50
2022-11-04T19:58:43.540Z,9.50
2022-11-04T20:03:46.011Z,9.50
2022-11-04T20:08:49.071Z,9.50
2022-11-04T20:13:52.386Z,9.60
2022-11-04T20:19:01.350Z,9.60
2022-11-04T20:24:06.612Z,9.60
2022-11-04T20:29:10.253Z,9.50
2022-11-04T20:34:14.208Z,9.50
2022-11-04T20:39:19.234Z,9.60
2022-11-04T20:44:22.107Z,9.60
2022-11-04T20:49:24.468Z,9.70
2022-11-04T20:54:27.103Z,9.70
2022-11-04T20:59:29.698Z,9.60
2022-11-04T21:04:36.150Z,9.60
2022-11-04T21:09:39.032Z,9.70
2022-11-04T21:14:41.448Z,9.60
2022-11-04T21:19:46.501Z,9.60
2022-11-04T21:24:48.936Z,9.60
2022-11-04T21:29:51.383Z,9.60
2022-11-04T21:34:53.792Z,9.70
2022-11-04T21:39:56.221Z,9.50
2022-11-04T21:44:58.593Z,9.50
2022-11-04T21:50:01.014Z,9.50
2022-11-04T21:55:03.548Z,9.50
2022-11-04T22:00:08.921Z,9.50
2022-11-04T22:05:11.929Z,9.50
2022-11-04T22:10:14.286Z,9.50
2022-11-04T22:15:36.670Z,9.50
2022-11-04T22:20:39.056Z,9.50
2022-11-04T22:25:45.864Z,9.50
2022-11-04T22:30:51.362Z,9.50
2022-11-04T22:35:53.782Z,9.50
2022-11-04T22:40:57.390Z,9.60
2022-11-04T22:46:12.298Z,9.60
2022-11-04T22:51:15.048Z,9.50
2022-11-04T22:56:17.429Z,9.60
2022-11-04T23:01:19.995Z,9.50
2022-11-04T23:06:22.590Z,9.60
2022-11-04T23:11:45.867Z,9.50
2022-11-04T23:17:09.278Z,9.50
2022-11-04T23:22:30.405Z,9.50
2022-11-04T23:28:03.501Z,9.60
2022-11-04T23:33:11.698Z,9.50
2022-11-04T23:38:14.647Z,9.40
2022-11-04T23:43:17.050Z,9.40
2022-11-04T23:48:37.929Z,9.40
2022-11-04T23:53:59.149Z,9.40
2022-11-04T23:59:24.564Z,9.50
